FALA

Lanseria Airport

Johannesburg, South Africa
TAF FALA 171600Z 1718/1818 35008KT 9999 SCT040 BECMG 1720/1722 VRB03KT BECMG 1724/1802 01010KT BECMG 1810/1812 FEW050TCU TEMPO 1813/1818 21015G25KT 5000 TSRA FEW055CB TX32/1813Z TN19/1803Z
Issued Valid From Valid To
Nov-17 @ 16:00 UTC
(6 hours ago)
Nov-17 @ 18:00 UTC
(4 hours ago)
Nov-18 @ 18:00 UTC
(in 20 hours)
Expired Click to View Nov-17 @ 18:00 to Nov-17 @ 20:00
TAF FALA 171600Z 1718/1818 35008KT 9999 SCT040
Wind Visibility Clouds
350° at 8 knots 10,000+ meters
  • Scattered at 4,000' AGL
Becoming Nov-17 @ 20:00 to Nov-18 @ 00:00
BECMG 1720/1722 VRB03KT
Wind Visibility Clouds
Variable at 3 knots 10,000+ meters
  • Scattered at 4,000' AGL
Becoming Nov-18 @ 00:00 to Nov-18 @ 10:00
Wind Visibility Clouds
10° at 10 knots 10,000+ meters
  • Scattered at 4,000' AGL
Becoming Nov-18 @ 10:00 to Nov-18 @ 18:00
BECMG 1810/1812 FEW050TCU
Wind Visibility Clouds
10° at 10 knots 10,000+ meters
  • Few at 5,000' AGL
Temporary Nov-18 @ 13:00 to Nov-18 @ 18:00
TEMPO 1813/1818 21015G25KT 5000 TSRA FEW055CB TX32/1813Z TN19/1803Z
Wind Visibility Clouds Conditions
210° at 15 knots
 Gusting to 25 knots
5,005 meters
  • Few at 5,500' AGL
  • Thunderstorm
  • Rain
TAF FALA 171600Z 1718/1818 35008KT 9999 SCT040 BECMG 1720/1722 VRB03KT BECMG 1724/1802 01010KT BECMG 1810/1812 FEW050TCU TEMPO 1813/1818 21015G25KT 5000 TSRA FEW055CB TX32/1813Z TN19/1803Z
Issued Nov-17 @ 16:00 UTC
(6 hours ago)
Valid From Nov-17 @ 18:00 UTC
(4 hours ago)
Valid To Nov-18 @ 18:00 UTC
(in 20 hours)
Nov-17 @ 18:00 - Nov-17 @ 20:00
Wind Visibility
350° at 8 knots 10,000+ meters
Clouds
  • Scattered at 4,000' AGL
Becoming Nov-17 @ 20:00 - Nov-18 @ 00:00
Wind Visibility
Variable at 3 knots 10,000+ meters
Clouds
  • Scattered at 4,000' AGL
Becoming Nov-18 @ 00:00 - Nov-18 @ 10:00
Wind Visibility
10° at 10 knots 10,000+ meters
Clouds
  • Scattered at 4,000' AGL
Becoming Nov-18 @ 10:00 - Nov-18 @ 18:00
Wind Visibility
10° at 10 knots 10,000+ meters
Clouds
  • Few at 5,000' AGL
Temporary Nov-18 @ 13:00 - Nov-18 @ 18:00
Wind Visibility
210° at 15 knots
 Gusting to 25 knots
5,005 meters
Clouds
  • Few at 5,500' AGL
Conditions
  • Thunderstorm
  • Rain